createdAt,value
2023-04-02T00:02:30.862Z,14.44
2023-04-02T00:05:34.530Z,13.72
2023-04-02T00:08:10.399Z,13.22
2023-04-02T00:10:40.640Z,13.54
2023-04-02T00:13:24.931Z,14.89
2023-04-02T00:15:57.807Z,13.74
2023-04-02T00:18:27.141Z,13.98
2023-04-02T00:21:02.377Z,14.33
2023-04-02T00:23:31.700Z,14.55
2023-04-02T00:25:59.704Z,14.73
2023-04-02T00:28:27.660Z,14.24
2023-04-02T00:30:59.546Z,14.91
2023-04-02T00:33:29.741Z,13.85
2023-04-02T00:35:58.344Z,14.16
2023-04-02T00:38:28.663Z,14.68
2023-04-02T00:41:01.505Z,14.36
2023-04-02T00:43:32.857Z,13.38
2023-04-02T00:46:03.901Z,15.13
2023-04-02T00:48:44.292Z,13.36
2023-04-02T00:51:17.770Z,13.73
2023-04-02T00:53:47.689Z,13.51
2023-04-02T00:56:25.540Z,14.53
2023-04-02T00:58:55.985Z,13.11
2023-04-02T01:01:25.766Z,13.05
2023-04-02T01:03:58.364Z,13.92
2023-04-02T01:06:31.209Z,12.55
2023-04-02T01:09:13.101Z,13.53
2023-04-02T01:12:17.050Z,14.41
2023-04-02T01:14:52.919Z,14.31
2023-04-02T01:17:42.804Z,13.39
2023-04-02T01:20:40.044Z,14.46
2023-04-02T01:23:13.355Z,14.13
2023-04-02T01:25:48.157Z,14.20
2023-04-02T01:28:21.434Z,14.25
2023-04-02T01:30:54.186Z,14.07
2023-04-02T01:33:24.737Z,14.15
2023-04-02T01:35:58.553Z,15.28
2023-04-02T01:38:32.862Z,14.44
2023-04-02T01:41:09.149Z,14.53
2023-04-02T01:43:47.014Z,13.72
2023-04-02T01:46:30.301Z,13.50
2023-04-02T01:48:58.819Z,13.27
2023-04-02T01:51:29.585Z,13.11
2023-04-02T01:54:01.645Z,13.24
2023-04-02T01:56:31.468Z,13.04
2023-04-02T01:59:01.277Z,13.96
2023-04-02T02:01:37.327Z,12.97
2023-04-02T02:04:05.653Z,13.75
2023-04-02T02:06:33.792Z,13.50
2023-04-02T02:09:04.874Z,13.35
2023-04-02T02:11:36.621Z,12.89
2023-04-02T02:14:14.183Z,13.29
2023-04-02T02:16:44.937Z,13.27
2023-04-02T02:19:23.331Z,13.88
2023-04-02T02:21:53.795Z,14.04
2023-04-02T02:24:24.564Z,14.64
2023-04-02T02:27:10.419Z,13.87
2023-04-02T02:29:41.302Z,13.42
2023-04-02T02:32:13.942Z,14.04
2023-04-02T02:34:49.222Z,12.50
2023-04-02T02:37:21.726Z,12.79
2023-04-02T02:39:54.921Z,13.20
2023-04-02T02:42:31.246Z,12.30
2023-04-02T02:45:03.868Z,13.46
2023-04-02T02:47:37.065Z,12.20
2023-04-02T02:50:15.050Z,13.06
2023-04-02T02:52:47.946Z,13.72
2023-04-02T02:55:19.495Z,13.17
2023-04-02T02:58:19.348Z,12.70
2023-04-02T03:01:07.837Z,13.34
2023-04-02T03:03:40.520Z,13.92
2023-04-02T03:06:16.605Z,13.42
2023-04-02T03:08:53.306Z,13.76
2023-04-02T03:11:33.184Z,13.45
2023-04-02T03:14:15.672Z,13.63
2023-04-02T03:16:48.298Z,14.44
2023-04-02T03:19:29.922Z,13.57
2023-04-02T03:22:03.250Z,13.14
2023-04-02T03:24:42.597Z,12.81
2023-04-02T03:27:16.116Z,12.77
2023-04-02T03:29:53.426Z,12.26
2023-04-02T03:32:24.560Z,13.30
2023-04-02T03:34:58.845Z,12.11
2023-04-02T03:37:34.145Z,13.87
2023-04-02T03:40:07.320Z,13.45
2023-04-02T03:42:41.986Z,13.48
2023-04-02T03:45:17.565Z,13.21
2023-04-02T03:47:50.795Z,13.60
2023-04-02T03:50:29.862Z,12.88
2023-04-02T03:53:01.445Z,13.18
2023-04-02T03:55:32.873Z,13.01
2023-04-02T03:58:06.270Z,12.99
2023-04-02T04:00:41.313Z,12.84
2023-04-02T04:03:15.371Z,13.21
2023-04-02T04:05:51.758Z,12.60
2023-04-02T04:08:25.087Z,12.76
2023-04-02T04:10:54.786Z,12.05
2023-04-02T04:13:30.874Z,12.83
2023-04-02T04:16:04.577Z,13.98
2023-04-02T04:18:37.927Z,13.28
2023-04-02T04:21:30.812Z,14.14
2023-04-02T04:24:09.045Z,12.57
2023-04-02T04:26:42.771Z,11.93
2023-04-02T04:29:28.490Z,11.92
2023-04-02T04:31:58.814Z,12.33
2023-04-02T04:34:38.834Z,12.73
2023-04-02T04:37:08.583Z,11.27
2023-04-02T04:39:45.700Z,11.99
2023-04-02T04:42:20.213Z,11.93
2023-04-02T04:44:56.313Z,11.88
2023-04-02T04:47:30.960Z,13.32
2023-04-02T04:50:07.071Z,11.64
2023-04-02T04:52:41.987Z,13.08
2023-04-02T04:55:27.064Z,11.38
2023-04-02T04:57:57.833Z,11.56
2023-04-02T05:00:29.934Z,12.00
2023-04-02T05:03:04.639Z,11.98
2023-04-02T05:05:37.429Z,13.33
2023-04-02T05:08:14.797Z,13.51
2023-04-02T05:10:48.395Z,12.73
2023-04-02T05:13:21.862Z,12.54
2023-04-02T05:15:56.332Z,13.26
2023-04-02T05:18:29.714Z,12.89
2023-04-02T05:21:06.905Z,13.23
2023-04-02T05:23:45.763Z,12.77
2023-04-02T05:26:17.888Z,12.72
2023-04-02T05:28:52.107Z,12.90
2023-04-02T05:31:25.873Z,13.68
2023-04-02T05:33:56.498Z,13.58
2023-04-02T05:36:26.799Z,13.54
2023-04-02T05:39:00.064Z,12.91
2023-04-02T05:41:40.352Z,12.40
2023-04-02T05:44:15.059Z,12.96
2023-04-02T05:46:48.594Z,12.37
2023-04-02T05:49:25.895Z,13.33
2023-04-02T05:51:58.888Z,12.23
2023-04-02T05:54:32.142Z,13.03
2023-04-02T05:57:05.944Z,13.43
2023-04-02T05:59:38.662Z,13.05
2023-04-02T06:02:15.774Z,13.33
2023-04-02T06:04:48.529Z,13.93
2023-04-02T06:07:22.773Z,13.58
2023-04-02T06:09:59.157Z,13.26
2023-04-02T06:12:33.894Z,12.87
2023-04-02T06:15:02.429Z,13.48
2023-04-02T06:17:44.152Z,13.16
2023-04-02T06:20:17.202Z,13.87
2023-04-02T06:22:50.228Z,13.69
2023-04-02T06:25:25.519Z,14.05
2023-04-02T06:27:57.751Z,14.04
2023-04-02T06:30:32.133Z,13.19
2023-04-02T06:33:01.012Z,13.75
2023-04-02T06:35:30.866Z,14.08
2023-04-02T06:38:06.753Z,13.95
2023-04-02T06:40:42.715Z,14.30
2023-04-02T06:43:41.923Z,13.66
2023-04-02T06:46:23.966Z,12.97
2023-04-02T06:49:16.284Z,14.98
2023-04-02T06:51:46.363Z,15.16
2023-04-02T06:54:16.110Z,14.25
2023-04-02T06:56:48.978Z,13.54
2023-04-02T06:59:33.247Z,13.22
2023-04-02T07:02:06.473Z,13.75
2023-04-02T07:04:35.388Z,14.07
2023-04-02T07:07:03.642Z,14.41
2023-04-02T07:09:35.231Z,13.76
2023-04-02T07:12:12.244Z,14.49
2023-04-02T07:14:40.347Z,15.16
2023-04-02T07:17:10.982Z,15.63
2023-04-02T07:19:38.746Z,15.15
2023-04-02T07:22:06.592Z,14.43
2023-04-02T07:24:39.281Z,15.01
2023-04-02T07:27:07.223Z,15.96
2023-04-02T07:29:37.564Z,15.05
2023-04-02T07:32:05.746Z,14.22
2023-04-02T07:34:33.484Z,14.57
2023-04-02T07:37:02.532Z,13.94
2023-04-02T07:39:30.918Z,14.02
2023-04-02T07:42:00.864Z,13.24
2023-04-02T07:44:29.264Z,15.21
2023-04-02T07:46:58.809Z,14.76
2023-04-02T07:49:27.118Z,14.65
2023-04-02T07:51:54.975Z,14.26
2023-04-02T07:54:22.754Z,13.71
2023-04-02T07:56:50.673Z,14.24
2023-04-02T07:59:21.225Z,15.07
2023-04-02T08:01:49.171Z,14.44
2023-04-02T08:04:20.600Z,14.28
2023-04-02T08:06:50.113Z,14.84
2023-04-02T08:09:18.574Z,14.74
2023-04-02T08:11:46.712Z,14.75
2023-04-02T08:14:14.856Z,14.25
2023-04-02T08:16:48.011Z,14.81
2023-04-02T08:19:16.576Z,14.98
2023-04-02T08:21:46.175Z,16.03
2023-04-02T08:24:14.197Z,15.35
2023-04-02T08:26:43.972Z,15.84
2023-04-02T08:29:13.388Z,14.87
2023-04-02T08:31:41.650Z,15.03
2023-04-02T08:34:09.513Z,14.43
2023-04-02T08:36:39.870Z,14.22
2023-04-02T08:39:11.780Z,14.46
2023-04-02T08:41:45.689Z,15.23
2023-04-02T08:44:24.140Z,15.38
2023-04-02T08:46:56.118Z,15.40
2023-04-02T08:49:31.969Z,14.49
2023-04-02T08:52:00.939Z,14.60
2023-04-02T08:54:32.703Z,15.17
2023-04-02T08:57:05.627Z,14.54
2023-04-02T08:59:36.238Z,14.81
2023-04-02T09:02:21.672Z,15.21
2023-04-02T09:04:50.428Z,15.58
2023-04-02T09:07:19.066Z,15.01
2023-04-02T09:09:50.892Z,14.65
2023-04-02T09:12:20.988Z,15.01
2023-04-02T09:15:00.718Z,15.29
2023-04-02T09:17:31.193Z,14.62
2023-04-02T09:20:08.712Z,14.14
2023-04-02T09:22:36.779Z,14.74
2023-04-02T09:25:13.309Z,15.34
2023-04-02T09:27:41.270Z,14.70
2023-04-02T09:30:24.896Z,14.51
2023-04-02T09:32:54.358Z,14.97
2023-04-02T09:35:39.023Z,15.71
2023-04-02T09:38:21.993Z,15.81
2023-04-02T09:40:59.764Z,15.84
2023-04-02T09:43:29.137Z,14.77
2023-04-02T09:46:00.520Z,14.59
2023-04-02T09:48:31.662Z,15.86
2023-04-02T09:51:08.386Z,16.18
2023-04-02T09:53:39.103Z,16.05
2023-04-02T09:56:12.707Z,15.12
2023-04-02T09:58:41.795Z,15.88
2023-04-02T10:01:27.866Z,16.50
2023-04-02T10:03:56.315Z,16.33
2023-04-02T10:06:24.389Z,15.37
2023-04-02T10:08:52.673Z,16.73
2023-04-02T10:11:36.489Z,15.37
2023-04-02T10:14:20.076Z,15.28
2023-04-02T10:16:51.979Z,16.15
2023-04-02T10:19:28.155Z,16.13
2023-04-02T10:21:56.840Z,16.02
2023-04-02T10:24:28.276Z,17.06
2023-04-02T10:27:09.844Z,16.35
2023-04-02T10:29:53.012Z,17.09
2023-04-02T10:32:26.359Z,17.26
2023-04-02T10:35:00.556Z,17.29
2023-04-02T10:38:03.724Z,18.21
2023-04-02T10:40:37.340Z,18.39
2023-04-02T10:43:53.026Z,19.66
2023-04-02T10:46:25.953Z,19.31
2023-04-02T10:49:03.647Z,18.33
2023-04-02T10:51:40.349Z,19.41
2023-04-02T10:54:24.149Z,18.20
2023-04-02T10:56:54.801Z,16.65
2023-04-02T10:59:28.807Z,16.43
2023-04-02T11:02:00.334Z,17.35
2023-04-02T11:04:32.215Z,18.08
2023-04-02T11:07:13.071Z,15.98
2023-04-02T11:09:46.659Z,15.95
2023-04-02T11:12:24.183Z,16.67
2023-04-02T11:14:55.857Z,17.22
2023-04-02T11:17:25.255Z,18.58
2023-04-02T11:19:54.048Z,17.55
2023-04-02T11:22:23.009Z,18.12
2023-04-02T11:24:53.005Z,17.89
2023-04-02T11:27:27.689Z,18.78
2023-04-02T11:30:05.535Z,19.05
2023-04-02T11:32:37.788Z,19.68
2023-04-02T11:35:38.921Z,18.43
2023-04-02T11:38:48.221Z,16.17
2023-04-02T11:41:54.797Z,18.27
2023-04-02T11:44:26.164Z,17.72
2023-04-02T11:47:16.417Z,16.53
2023-04-02T11:50:02.553Z,16.70
2023-04-02T11:52:34.270Z,15.48
2023-04-02T11:55:33.100Z,15.57
2023-04-02T11:58:24.955Z,14.99
2023-04-02T12:01:14.846Z,15.35
2023-04-02T12:04:07.433Z,16.72
2023-04-02T12:06:52.035Z,15.57
2023-04-02T12:09:24.061Z,15.53
2023-04-02T12:11:53.653Z,16.53
2023-04-02T12:14:35.243Z,16.84
2023-04-02T12:17:07.747Z,17.53
2023-04-02T12:19:38.550Z,16.07
2023-04-02T12:22:06.843Z,16.47
2023-04-02T12:24:34.753Z,15.26
2023-04-02T12:27:15.500Z,16.35
2023-04-02T12:29:44.161Z,17.62
2023-04-02T12:32:22.464Z,16.76
2023-04-02T12:34:53.219Z,17.36
2023-04-02T12:37:23.319Z,18.98
2023-04-02T12:39:59.289Z,20.44
2023-04-02T12:42:29.057Z,20.17
2023-04-02T12:44:56.808Z,20.17
2023-04-02T12:47:24.913Z,20.77
2023-04-02T12:49:54.838Z,20.68
2023-04-02T12:52:24.652Z,20.75
2023-04-02T12:54:54.270Z,20.31
2023-04-02T12:57:39.529Z,18.38
2023-04-02T13:00:36.627Z,18.71
2023-04-02T13:03:27.285Z,18.55
2023-04-02T13:05:58.603Z,19.17
2023-04-02T13:08:28.844Z,21.19
2023-04-02T13:10:58.920Z,18.46
2023-04-02T13:13:30.329Z,19.80
2023-04-02T13:16:05.014Z,19.64
2023-04-02T13:18:34.436Z,17.71
2023-04-02T13:21:04.901Z,16.97
2023-04-02T13:23:36.188Z,16.74
2023-04-02T13:26:17.407Z,16.42
2023-04-02T13:28:56.027Z,18.03
2023-04-02T13:31:23.957Z,15.88
2023-04-02T13:33:51.907Z,17.36
2023-04-02T13:36:21.290Z,17.64
2023-04-02T13:38:49.493Z,17.64
2023-04-02T13:41:23.692Z,16.90
2023-04-02T13:43:51.870Z,17.15
2023-04-02T13:46:23.416Z,17.26
2023-04-02T13:48:52.914Z,18.74
2023-04-02T13:51:25.423Z,17.52
2023-04-02T13:53:56.744Z,18.48
2023-04-02T13:56:24.913Z,20.00
2023-04-02T13:58:53.371Z,19.80
2023-04-02T14:01:22.783Z,17.87
2023-04-02T14:03:51.345Z,18.06
2023-04-02T14:06:31.872Z,18.78
2023-04-02T14:09:05.348Z,18.97
2023-04-02T14:11:46.853Z,21.10
2023-04-02T14:14:35.069Z,20.51
2023-04-02T14:17:12.352Z,20.18
2023-04-02T14:19:53.550Z,21.50
2023-04-02T14:22:32.759Z,20.16
2023-04-02T14:25:09.990Z,17.47
2023-04-02T14:27:44.729Z,18.13
2023-04-02T14:30:21.517Z,17.24
2023-04-02T14:32:59.068Z,17.77
2023-04-02T14:35:34.928Z,18.68
2023-04-02T14:38:13.099Z,18.94
2023-04-02T14:40:49.463Z,18.20
2023-04-02T14:43:22.314Z,18.28
2023-04-02T14:45:58.763Z,18.91
2023-04-02T14:48:38.570Z,19.83
2023-04-02T14:51:13.534Z,19.96
2023-04-02T14:53:52.557Z,20.19
2023-04-02T14:56:22.900Z,18.69
2023-04-02T14:58:55.579Z,19.75
2023-04-02T15:01:28.765Z,20.65
2023-04-02T15:04:02.248Z,21.32
2023-04-02T15:06:35.496Z,20.26
2023-04-02T15:09:09.814Z,19.69
2023-04-02T15:11:39.401Z,18.75
2023-04-02T15:14:17.372Z,19.74
2023-04-02T15:16:45.920Z,19.80
2023-04-02T15:19:15.695Z,17.39
2023-04-02T15:21:57.196Z,18.50
2023-04-02T15:24:36.073Z,18.54
2023-04-02T15:27:25.221Z,19.05
2023-04-02T15:30:00.081Z,20.43
2023-04-02T15:32:36.259Z,20.68
2023-04-02T15:35:18.577Z,24.56
2023-04-02T15:37:57.886Z,24.49
2023-04-02T15:40:47.227Z,24.56
2023-04-02T15:43:22.229Z,25.96
2023-04-02T15:46:06.709Z,26.59
2023-04-02T15:49:10.315Z,26.22
2023-04-02T15:51:52.862Z,25.59
2023-04-02T15:54:38.032Z,24.08
2023-04-02T15:57:19.145Z,23.03
2023-04-02T16:00:12.639Z,22.42
2023-04-02T16:02:59.330Z,19.68
2023-04-02T16:05:37.489Z,18.79
2023-04-02T16:08:25.338Z,18.79
2023-04-02T16:10:53.200Z,18.66
2023-04-02T16:13:32.068Z,19.18
2023-04-02T16:16:06.437Z,19.78
2023-04-02T16:18:45.839Z,19.91
2023-04-02T16:21:17.555Z,21.91
2023-04-02T16:23:45.718Z,22.00
2023-04-02T16:26:40.213Z,24.30
2023-04-02T16:29:23.236Z,25.78
2023-04-02T16:31:57.754Z,25.29
2023-04-02T16:34:37.553Z,25.31
2023-04-02T16:37:16.510Z,22.72
2023-04-02T16:39:50.619Z,21.84
2023-04-02T16:42:28.236Z,20.33
2023-04-02T16:45:04.537Z,19.46
2023-04-02T16:47:48.426Z,19.83
2023-04-02T16:50:27.863Z,20.87
2023-04-02T16:53:04.078Z,18.07
2023-04-02T16:55:43.292Z,18.22
2023-04-02T16:58:27.021Z,17.77
2023-04-02T17:01:00.491Z,18.05
2023-04-02T17:03:48.761Z,17.86
2023-04-02T17:06:31.950Z,18.44
2023-04-02T17:09:08.925Z,17.72
2023-04-02T17:11:50.038Z,17.79
2023-04-02T17:14:32.126Z,18.10
2023-04-02T17:17:05.231Z,18.65
2023-04-02T17:19:34.066Z,18.66
2023-04-02T17:22:04.678Z,17.73
2023-04-02T17:24:42.181Z,17.87
2023-04-02T17:27:18.500Z,17.70
2023-04-02T17:29:49.961Z,17.97
2023-04-02T17:32:23.762Z,18.25
2023-04-02T17:34:52.783Z,18.28
2023-04-02T17:37:31.186Z,17.23
2023-04-02T17:40:09.474Z,17.11
2023-04-02T17:42:53.389Z,16.37
2023-04-02T17:45:29.294Z,16.37
2023-04-02T17:48:04.073Z,16.44
2023-04-02T17:50:54.497Z,17.01
2023-04-02T17:53:36.841Z,16.58
2023-04-02T17:56:27.692Z,16.98
2023-04-02T17:59:23.857Z,17.00
2023-04-02T18:02:01.073Z,17.07
2023-04-02T18:04:41.688Z,17.05
2023-04-02T18:07:28.529Z,16.80
2023-04-02T18:10:05.068Z,17.12
2023-04-02T18:12:56.036Z,17.17
2023-04-02T18:15:49.463Z,17.51
2023-04-02T18:18:31.700Z,16.77
2023-04-02T18:21:14.015Z,17.62
2023-04-02T18:23:55.390Z,17.49
2023-04-02T18:26:36.756Z,17.37
2023-04-02T18:29:16.830Z,17.55
2023-04-02T18:31:51.426Z,17.12
2023-04-02T18:34:36.244Z,16.92
2023-04-02T18:37:18.251Z,17.53
2023-04-02T18:39:56.189Z,16.83
2023-04-02T18:42:39.706Z,16.27
2023-04-02T18:45:16.111Z,16.29
2023-04-02T18:47:54.424Z,15.89
2023-04-02T18:50:29.123Z,16.69
2023-04-02T18:52:58.428Z,15.85
2023-04-02T18:55:30.900Z,15.47
2023-04-02T18:58:05.306Z,16.12
2023-04-02T19:00:38.206Z,15.39
2023-04-02T19:03:13.653Z,15.45
2023-04-02T19:05:46.117Z,15.19
2023-04-02T19:08:20.036Z,14.78
2023-04-02T19:10:52.405Z,15.24
2023-04-02T19:13:21.505Z,15.09
2023-04-02T19:16:03.084Z,15.02
2023-04-02T19:18:40.932Z,15.83
2023-04-02T19:21:21.991Z,16.07
2023-04-02T19:24:16.152Z,15.37
2023-04-02T19:26:50.360Z,15.68
2023-04-02T19:29:29.940Z,16.42
2023-04-02T19:32:05.903Z,16.02
2023-04-02T19:34:40.031Z,15.42
2023-04-02T19:37:16.882Z,15.50
2023-04-02T19:40:13.809Z,15.25
2023-04-02T19:42:45.590Z,15.34
2023-04-02T19:45:25.176Z,15.69
2023-04-02T19:47:53.366Z,15.33
2023-04-02T19:50:23.922Z,15.04
2023-04-02T19:52:55.947Z,14.93
2023-04-02T19:55:25.292Z,15.86
2023-04-02T19:57:57.797Z,15.56
2023-04-02T20:00:32.805Z,14.95
2023-04-02T20:03:00.899Z,14.88
2023-04-02T20:05:28.729Z,15.09
2023-04-02T20:07:56.673Z,14.65
2023-04-02T20:10:25.770Z,15.22
2023-04-02T20:12:53.539Z,14.87
2023-04-02T20:15:21.285Z,15.35
2023-04-02T20:17:49.073Z,15.01
2023-04-02T20:20:17.580Z,13.86
2023-04-02T20:22:45.324Z,13.96
2023-04-02T20:25:13.060Z,14.43
2023-04-02T20:27:42.201Z,14.61
2023-04-02T20:30:10.461Z,13.92
2023-04-02T20:32:38.428Z,14.41
2023-04-02T20:35:07.026Z,14.57
2023-04-02T20:37:34.833Z,14.28
2023-04-02T20:40:02.550Z,14.77
2023-04-02T20:42:30.557Z,15.03
2023-04-02T20:44:59.641Z,15.31
2023-04-02T20:47:27.382Z,14.05
2023-04-02T20:49:55.149Z,14.43
2023-04-02T20:52:23.233Z,14.24
2023-04-02T20:54:51.608Z,13.94
2023-04-02T20:57:21.703Z,14.54
2023-04-02T20:59:49.615Z,14.64
2023-04-02T21:02:18.924Z,15.65
2023-04-02T21:04:46.747Z,15.61
2023-04-02T21:07:14.518Z,16.10
2023-04-02T21:09:42.271Z,14.83
2023-04-02T21:12:10.034Z,13.83
2023-04-02T21:14:39.790Z,13.84
2023-04-02T21:17:08.403Z,14.13
2023-04-02T21:19:37.707Z,13.98
2023-04-02T21:22:05.410Z,14.41
2023-04-02T21:24:33.277Z,15.07
2023-04-02T21:27:01.079Z,14.50
2023-04-02T21:29:28.785Z,15.01
2023-04-02T21:31:56.797Z,15.05
2023-04-02T21:34:24.624Z,14.91
2023-04-02T21:36:53.732Z,14.35
2023-04-02T21:39:23.910Z,14.29
2023-04-02T21:41:53.134Z,14.42
2023-04-02T21:44:23.008Z,13.64
2023-04-02T21:46:53.636Z,13.93
2023-04-02T21:49:23.066Z,13.91
2023-04-02T21:51:52.334Z,13.71
2023-04-02T21:54:21.487Z,14.37
2023-04-02T21:56:49.745Z,13.55
2023-04-02T21:59:18.676Z,13.12
2023-04-02T22:01:48.492Z,13.59
2023-04-02T22:04:18.891Z,12.80
2023-04-02T22:06:47.254Z,12.80
2023-04-02T22:09:17.363Z,13.03
2023-04-02T22:11:48.650Z,12.72
2023-04-02T22:14:16.531Z,12.18
2023-04-02T22:16:44.921Z,12.58
2023-04-02T22:19:15.269Z,13.49
2023-04-02T22:21:43.553Z,12.81
2023-04-02T22:24:14.897Z,12.69
2023-04-02T22:26:43.110Z,12.85
2023-04-02T22:29:12.898Z,12.44
2023-04-02T22:31:40.719Z,12.90
2023-04-02T22:34:08.939Z,12.67
2023-04-02T22:36:36.976Z,13.37
2023-04-02T22:39:10.161Z,13.46
2023-04-02T22:41:38.310Z,13.26
2023-04-02T22:44:06.111Z,13.16
2023-04-02T22:46:35.737Z,13.35
2023-04-02T22:49:04.330Z,13.40
2023-04-02T22:51:32.139Z,13.54
2023-04-02T22:54:00.097Z,13.00
2023-04-02T22:56:31.901Z,12.89
2023-04-02T22:59:00.761Z,13.21
2023-04-02T23:01:31.367Z,12.87
2023-04-02T23:04:01.433Z,13.32
2023-04-02T23:06:29.695Z,12.97
2023-04-02T23:08:57.636Z,11.92
2023-04-02T23:11:27.523Z,12.26
2023-04-02T23:13:57.777Z,12.50
2023-04-02T23:16:27.486Z,12.04
2023-04-02T23:18:55.535Z,12.63
2023-04-02T23:21:25.946Z,12.04
2023-04-02T23:23:53.840Z,12.73
2023-04-02T23:26:23.501Z,12.06
2023-04-02T23:28:51.742Z,11.89
2023-04-02T23:31:21.967Z,11.66
2023-04-02T23:33:50.580Z,11.57
2023-04-02T23:36:22.349Z,11.96
2023-04-02T23:38:54.958Z,11.52
2023-04-02T23:41:24.066Z,11.72
2023-04-02T23:43:52.004Z,11.50
2023-04-02T23:46:20.496Z,11.32
2023-04-02T23:48:50.522Z,12.18
2023-04-02T23:51:19.310Z,12.48
2023-04-02T23:53:47.160Z,12.49
2023-04-02T23:56:16.353Z,12.21
2023-04-02T23:58:44.301Z,12.03
